Terminal Aerodrome Forecast
Issued by NWS

Home | Current Version | Previous Version | Text Only | Print | Product List | Glossary On
Versions: 1 2 3 4 5 6 7 8 9 10 11 12
000
FTUS45 KTFX 271124
TAFBZN
TAF
KBZN 271124Z 2712/2818 VRB04KT P6SM SCT120
     FM272000 30006KT P6SM VCSH SCT080 BKN120
      TEMPO 2721/2801 VRB15G30KT 5SM -TSRA BKN060CB
     FM280300 VRB05KT P6SM SCT060 BKN110
     FM280900 VRB03KT P6SM SCT150=

USA.gov is the U.S. government's official web portal to all federal, state and local government web resources and services.